Kyokuho Maru No.15 — JI3715 — position and weather

sailwx.info

Track history (hours):
 
Tides and Currents Weather Stations Pressure Air Temp Water Temp Dewpoint Dewpoint Depression Visibility Wind Speed Wind Dir Waves Ship Positions

Kyokuho Maru No.15

Last reported at 2014-Nov-23 09:17 UTC. Time now 2014-Nov-24 22:50 UTC.
Position N 35°07' E 139°41'.

Length 63 m; draft 3.6 m.

Type: Tanker. MMSI: 431301714.

Date/timePositionNaut miles runAvg speedWind from/ knotsBaromVisibWave heightAir tempDewpointWater temp
2014-Nov-23 09:17N 35°07' E 139°41'811.2
2014-Nov-23 08:33N 35°13' E 139°46'1111.1
2014-Nov-23 07:33N 35°24' E 139°43'7 7.2
2014-Nov-23 06:33N 35°31' E 139°45'0 0.0
2014-Nov-23 05:32N 35°31' E 139°45'0 0.0
2014-Nov-23 04:33N 35°31' E 139°45'0 0.0
2014-Nov-23 03:33N 35°31' E 139°45'0 0.0
2014-Nov-23 02:31N 35°31' E 139°45'0 0.0
2014-Nov-23 01:33N 35°31' E 139°45'3 3.1
2014-Nov-23 00:33N 35°29' E 139°48'1111.2
2014-Nov-22 23:34N 35°19' E 139°44'  
2014-Nov-19 11:34N 35°11' E 139°46'1211.8
2014-Nov-19 10:34N 35°22' E 139°42'1311.6
2014-Nov-19 09:28N 35°30' E 139°54'7 1.0
2014-Nov-19 02:33N 35°30' E 139°46'1 1.1
2014-Nov-19 01:33N 35°31' E 139°46'0 0.0
2014-Nov-19 00:32N 35°31' E 139°46'0 0.0
2014-Nov-18 23:33N 35°31' E 139°46'0 0.0
2014-Nov-18 22:33N 35°31' E 139°46'6 6.2
2014-Nov-18 21:33N 35°25' E 139°47'10 9.6
2014-Nov-18 20:33N 35°16' E 139°47'9 0.2
2014-Nov-17 06:10N 35°08' E 139°43'710.9
2014-Nov-17 05:33N 35°14' E 139°46'1110.7
2014-Nov-17 04:34N 35°24' E 139°43'1210.8
2014-Nov-17 03:29N 35°30' E 139°55'4 0.9
2014-Nov-16 22:29N 35°29' E 140°00'7 0.2
2014-Nov-15 12:33N 35°34' E 139°54'1010.2
2014-Nov-15 11:33N 35°26' E 139°48'9 9.5
2014-Nov-15 10:33N 35°16' E 139°46'245 9.0
2014-Nov-14 07:32N 34°03' E 135°02'1111.1
2014-Nov-14 06:33N 34°14' E 135°03'1110.5
2014-Nov-14 05:30N 34°24' E 135°09'1010.3
2014-Nov-14 04:33N 34°32' E 135°15'7 7.4
2014-Nov-14 03:33N 34°39' E 135°19'1 1.1
2014-Nov-14 02:33N 34°39' E 135°18'0 0.0
2014-Nov-14 01:33N 34°39' E 135°18'0 0.0
2014-Nov-14 00:33N 34°39' E 135°18'0 0.0
2014-Nov-13 23:33N 34°39' E 135°18'0 0.0
2014-Nov-13 22:33N 34°39' E 135°18'1 0.7
2014-Nov-13 21:33N 34°39' E 135°19'0 0.2
2014-Nov-13 20:20N 34°39' E 135°19'0 0.0
2014-Nov-13 19:32N 34°39' E 135°19'0 0.0
2014-Nov-13 18:32N 34°39' E 135°19'0 0.0
2014-Nov-13 17:32N 34°39' E 135°19'0 0.0
2014-Nov-13 16:32N 34°39' E 135°19'0 0.0
2014-Nov-13 15:32N 34°39' E 135°19'0 0.0
2014-Nov-13 14:32N 34°39' E 135°19'0 0.0
2014-Nov-13 13:32N 34°39' E 135°19'0 0.0
2014-Nov-13 12:32N 34°39' E 135°19'0 0.0
2014-Nov-13 11:32N 34°39' E 135°19'0 0.0
2014-Nov-13 10:32N 34°39' E 135°19'0 0.0
2014-Nov-13 09:32N 34°39' E 135°19'  
Track history (hours):
 
Tides and Currents Weather Stations Pressure Air Temp Water Temp Dewpoint Dewpoint Depression Visibility Wind Speed Wind Dir Waves Ship Positions

Kyokuho Maru No.15

Last reported at 2014-Nov-23 09:17 UTC. Time now 2014-Nov-24 22:50 UTC.
Position N 35°07' E 139°41'.

Length 63 m; draft 3.6 m.

Type: Tanker. MMSI: 431301714.

Date/timePositionNaut miles runAvg speedWind from/ knotsBaromVisibWave heightAir tempDewpointWater temp
2014-Nov-23 09:17N 35°07' E 139°41'811.2
2014-Nov-23 08:33N 35°13' E 139°46'1111.1
2014-Nov-23 07:33N 35°24' E 139°43'7 7.2
2014-Nov-23 06:33N 35°31' E 139°45'0 0.0
2014-Nov-23 05:32N 35°31' E 139°45'0 0.0
2014-Nov-23 04:33N 35°31' E 139°45'0 0.0
2014-Nov-23 03:33N 35°31' E 139°45'0 0.0
2014-Nov-23 02:31N 35°31' E 139°45'0 0.0
2014-Nov-23 01:33N 35°31' E 139°45'3 3.1
2014-Nov-23 00:33N 35°29' E 139°48'1111.2
2014-Nov-22 23:34N 35°19' E 139°44'  
2014-Nov-19 11:34N 35°11' E 139°46'1211.8
2014-Nov-19 10:34N 35°22' E 139°42'1311.6
2014-Nov-19 09:28N 35°30' E 139°54'7 1.0
2014-Nov-19 02:33N 35°30' E 139°46'1 1.1
2014-Nov-19 01:33N 35°31' E 139°46'0 0.0
2014-Nov-19 00:32N 35°31' E 139°46'0 0.0
2014-Nov-18 23:33N 35°31' E 139°46'0 0.0
2014-Nov-18 22:33N 35°31' E 139°46'6 6.2
2014-Nov-18 21:33N 35°25' E 139°47'10 9.6
2014-Nov-18 20:33N 35°16' E 139°47'9 0.2
2014-Nov-17 06:10N 35°08' E 139°43'710.9
2014-Nov-17 05:33N 35°14' E 139°46'1110.7
2014-Nov-17 04:34N 35°24' E 139°43'1210.8
2014-Nov-17 03:29N 35°30' E 139°55'4 0.9
2014-Nov-16 22:29N 35°29' E 140°00'7 0.2
2014-Nov-15 12:33N 35°34' E 139°54'1010.2
2014-Nov-15 11:33N 35°26' E 139°48'9 9.5
2014-Nov-15 10:33N 35°16' E 139°46'245 9.0
2014-Nov-14 07:32N 34°03' E 135°02'1111.1
2014-Nov-14 06:33N 34°14' E 135°03'1110.5
2014-Nov-14 05:30N 34°24' E 135°09'1010.3
2014-Nov-14 04:33N 34°32' E 135°15'7 7.4
2014-Nov-14 03:33N 34°39' E 135°19'1 1.1
2014-Nov-14 02:33N 34°39' E 135°18'0 0.0
2014-Nov-14 01:33N 34°39' E 135°18'0 0.0
2014-Nov-14 00:33N 34°39' E 135°18'0 0.0
2014-Nov-13 23:33N 34°39' E 135°18'0 0.0
2014-Nov-13 22:33N 34°39' E 135°18'1 0.7
2014-Nov-13 21:33N 34°39' E 135°19'0 0.2
2014-Nov-13 20:20N 34°39' E 135°19'0 0.0
2014-Nov-13 19:32N 34°39' E 135°19'0 0.0
2014-Nov-13 18:32N 34°39' E 135°19'0 0.0
2014-Nov-13 17:32N 34°39' E 135°19'0 0.0
2014-Nov-13 16:32N 34°39' E 135°19'0 0.0
2014-Nov-13 15:32N 34°39' E 135°19'0 0.0
2014-Nov-13 14:32N 34°39' E 135°19'0 0.0
2014-Nov-13 13:32N 34°39' E 135°19'0 0.0
2014-Nov-13 12:32N 34°39' E 135°19'0 0.0
2014-Nov-13 11:32N 34°39' E 135°19'0 0.0
2014-Nov-13 10:32N 34°39' E 135°19'0 0.0
2014-Nov-13 09:32N 34°39' E 135°19'  

Dump ship's entire track history